MAR weather

La Chinita International Airport
Maracaibo, Zulia, Venezuela

Public forecast

Using degrees Celsius for public forecast. Weather courtesy of forecast.io.

METAR (pilot weather report)

Report is more than 6 hours old.

Retrieved 2019/09/03 18:10 UTC (14 days ago):

SVMC 031810Z METAR SVVG 0318100Z ///// 9999 SCT017 34/24 1009

TAF (pilot weather forecast)

Forecast is more than 12 hours old.

Retrieved 2019/09/17 00:16 UTC (1 day ago):

TAF SVMC 172200Z 1800/1900 14009KT 9999 BKN013 TX32/19Z TN23/08Z BECMG 1800/1804 34006KT 9000 -DZ BKN016